There are no active watches, warnings or advisories



For GOD so loved the world that HE gave HIS one and only SON, that whoever believes in HIM shall not perish but have eternal life.


Thunder radar more information blitzortung!


Rain radar more information rain snow radar



Nearby METAR Reports

   
SBAE - Bauru, Brazil
Updated: Dec 31 1969 7:00 pm
NOT Current
  
  
   Wind: Calm
Wind: Calm
KMCO - Orlando, Florida
Updated: Dec 13 2018 1:53 am
Overcast  
Overcast  
   Wind: ENE 4.6 mph
Wind: ENE 4.6 mph
Temperature: 57.2°F
Dew Point: 46.4°F
Humidity: 67%
Barometer: 30.19 inHg
Clouds: Overcast
Visibility: 10 mi
Cloud details: Overcast 6000 ft
KMCO 130653Z 07004KT 10SM OVC060 14/08 A3019 RMK AO2 SLP222 T01390083
KJHW - Jamestown, NY
Updated: Dec 13 2018 1:56 am
Overcast  
Overcast  
   Wind: South 6.9 mph
Wind: South 6.9 mph
Temperature: 32°F
Wind Chill: 26.6°F
Dew Point: 26.6°F
Humidity: 80%
Barometer: 30.01 inHg
Clouds: Overcast
Visibility: 10 mi
Cloud details: Overcast 3600 ft
KJHW 130656Z AUTO 17006KT 10SM OVC036 00/M03 A3001 RMK AO2 SLP185 T00001033 FZRANO
KSAT - San Antinio, TX
Updated: Dec 13 2018 2:15 am
Overcast  
Overcast  
   Wind: NW 3.5 mph
Wind: NW 3.5 mph
Temperature: 55.4°F
Dew Point: 53.6°F
Humidity: 94%
Barometer: 29.79 inHg
Clouds: Overcast
Visibility: 7 mi
Cloud details: Mostly Cloudy 500 ft,
Mostly Cloudy 3100 ft,
Overcast 18000 ft
KSAT 130715Z 32003KT 7SM BKN005 BKN031 OVC180 13/12 A2979 RMK AO2 BKN005 V SCT T01280117
KPHX - Carefree, AZ
Updated: Dec 13 2018 1:51 am
Few Clouds  
Few Clouds  
   Wind: NNE 3.5 mph
Wind: NNE 3.5 mph
Temperature: 55.4°F
Dew Point: 41°F
Humidity: 59%
Barometer: 30.12 inHg
Clouds: Few Clouds
Visibility: 10 mi
Cloud details: Few Clouds 25000 ft
KPHX 130651Z 03003KT 10SM FEW250 13/05 A3012 RMK AO2 SLP195 T01280050 402000078
 

Script developed by  Saratoga-weather.org Adapted for the template by  Weerstation Leuven